createdAt,value
2019-05-11T00:01:39.107Z,4.17
2019-05-11T00:04:09.804Z,4.20
2019-05-11T00:06:45.234Z,3.77
2019-05-11T00:09:16.350Z,4.22
2019-05-11T00:11:49.538Z,3.77
2019-05-11T00:14:21.258Z,3.83
2019-05-11T00:16:53.131Z,4.00
2019-05-11T00:19:25.142Z,4.28
2019-05-11T00:21:55.863Z,4.60
2019-05-11T00:24:29.634Z,5.08
2019-05-11T00:27:00.172Z,5.53
2019-05-11T00:29:31.250Z,5.97
2019-05-11T00:32:02.131Z,6.95
2019-05-11T00:34:32.821Z,7.08
2019-05-11T00:37:06.440Z,5.92
2019-05-11T00:39:36.751Z,5.92
2019-05-11T00:42:08.435Z,5.90
2019-05-11T00:44:39.785Z,5.55
2019-05-11T00:47:10.727Z,5.42
2019-05-11T00:49:41.251Z,5.72
2019-05-11T00:52:12.499Z,5.60
2019-05-11T00:54:43.424Z,5.78
2019-05-11T00:57:14.978Z,5.62
2019-05-11T00:59:46.120Z,7.65
2019-05-11T01:02:17.063Z,7.78
2019-05-11T01:04:48.000Z,8.38
2019-05-11T01:07:19.365Z,8.53
2019-05-11T01:09:51.201Z,9.03
2019-05-11T01:12:21.830Z,8.08
2019-05-11T01:14:52.680Z,8.60
2019-05-11T01:17:23.604Z,8.55
2019-05-11T01:19:55.369Z,9.18
2019-05-11T01:22:26.963Z,9.35
2019-05-11T01:24:58.259Z,9.95
2019-05-11T01:27:30.019Z,10.28
2019-05-11T01:30:00.863Z,8.93
2019-05-11T01:32:31.650Z,8.30
2019-05-11T01:35:03.259Z,7.37
2019-05-11T01:37:34.293Z,8.00
2019-05-11T01:40:10.019Z,9.75
2019-05-11T01:42:42.498Z,9.68
2019-05-11T01:45:13.598Z,9.48
2019-05-11T01:47:46.535Z,9.88
2019-05-11T01:50:17.359Z,9.90
2019-05-11T01:52:48.207Z,9.55
2019-05-11T01:55:19.133Z,10.25
2019-05-11T01:57:50.065Z,10.30
2019-05-11T02:00:21.929Z,10.28
2019-05-11T02:02:52.966Z,9.75
2019-05-11T02:05:30.708Z,10.43
2019-05-11T02:08:02.424Z,10.50
2019-05-11T02:10:34.373Z,10.10
2019-05-11T02:13:06.754Z,10.65
2019-05-11T02:15:37.387Z,10.95
2019-05-11T02:18:09.338Z,10.58
2019-05-11T02:20:40.177Z,10.40
2019-05-11T02:23:11.011Z,11.00
2019-05-11T02:25:43.147Z,10.43
2019-05-11T02:28:14.038Z,11.45
2019-05-11T02:30:44.846Z,11.08
2019-05-11T02:33:15.795Z,11.28
2019-05-11T02:35:46.824Z,10.15
2019-05-11T02:38:17.763Z,10.38
2019-05-11T02:40:49.118Z,10.50
2019-05-11T02:43:20.149Z,11.33
2019-05-11T02:45:52.009Z,10.82
2019-05-11T02:48:22.774Z,11.25
2019-05-11T02:50:55.215Z,11.00
2019-05-11T02:53:27.584Z,10.70
2019-05-11T02:55:58.419Z,11.05
2019-05-11T02:58:29.824Z,10.98
2019-05-11T03:01:01.117Z,9.88
2019-05-11T03:03:32.219Z,10.55
2019-05-11T03:06:03.304Z,9.88
2019-05-11T03:08:34.025Z,10.38
2019-05-11T03:11:05.178Z,10.00
2019-05-11T03:13:36.313Z,10.25
2019-05-11T03:16:07.242Z,11.00
2019-05-11T03:18:37.886Z,11.80
2019-05-11T03:21:08.941Z,14.03
2019-05-11T03:23:39.957Z,14.35
2019-05-11T03:26:10.789Z,14.38
2019-05-11T03:28:42.338Z,12.95
2019-05-11T03:31:12.883Z,13.30
2019-05-11T03:33:43.741Z,10.88
2019-05-11T03:36:14.967Z,10.88
2019-05-11T03:38:47.620Z,9.75
2019-05-11T03:41:18.356Z,10.55
2019-05-11T03:43:50.009Z,9.93
2019-05-11T03:46:20.651Z,9.65
2019-05-11T03:48:51.705Z,10.18
2019-05-11T03:51:22.718Z,9.55
2019-05-11T03:53:53.679Z,9.75
2019-05-11T03:56:24.382Z,9.75
2019-05-11T03:58:55.242Z,9.08
2019-05-11T04:01:25.884Z,9.00
2019-05-11T04:03:56.791Z,8.55
2019-05-11T04:06:28.036Z,8.20
2019-05-11T04:08:58.872Z,8.70
2019-05-11T04:11:29.825Z,8.53
2019-05-11T04:14:00.846Z,7.45
2019-05-11T04:16:31.807Z,7.62
2019-05-11T04:19:04.155Z,7.00
2019-05-11T04:21:34.956Z,7.40
2019-05-11T04:24:06.235Z,7.37
2019-05-11T04:26:37.388Z,6.37
2019-05-11T04:29:08.648Z,7.03
2019-05-11T04:31:39.458Z,7.03
2019-05-11T04:34:10.224Z,7.35
2019-05-11T04:36:41.143Z,7.58
2019-05-11T04:39:11.859Z,7.45
2019-05-11T04:41:42.792Z,7.70
2019-05-11T04:44:13.835Z,7.60
2019-05-11T04:46:46.102Z,8.15
2019-05-11T04:49:16.830Z,7.25
2019-05-11T04:51:47.873Z,7.47
2019-05-11T04:54:19.124Z,7.28
2019-05-11T04:56:49.954Z,7.80
2019-05-11T04:59:20.787Z,7.50
2019-05-11T05:01:53.880Z,7.65
2019-05-11T05:04:25.324Z,8.03
2019-05-11T05:06:59.827Z,7.62
2019-05-11T05:09:29.203Z,7.53
2019-05-11T05:12:00.184Z,8.30
2019-05-11T05:14:31.119Z,8.05
2019-05-11T05:17:01.656Z,7.75
2019-05-11T05:19:33.428Z,8.03
2019-05-11T05:22:04.545Z,7.95
2019-05-11T05:24:35.751Z,8.65
2019-05-11T05:27:06.423Z,8.85
2019-05-11T05:29:37.464Z,8.15
2019-05-11T05:32:08.712Z,8.58
2019-05-11T05:34:41.343Z,8.98
2019-05-11T05:37:12.522Z,9.40
2019-05-11T05:39:43.363Z,8.08
2019-05-11T05:42:14.612Z,7.90
2019-05-11T05:44:45.253Z,7.90
2019-05-11T05:47:16.085Z,9.10
2019-05-11T05:49:47.030Z,7.42
2019-05-11T05:52:19.173Z,7.67
2019-05-11T05:54:51.034Z,8.30
2019-05-11T05:57:22.599Z,8.00
2019-05-11T05:59:53.532Z,6.60
2019-05-11T06:02:24.353Z,7.40
2019-05-11T06:04:56.217Z,8.38
2019-05-11T06:07:27.051Z,9.18
2019-05-11T06:09:57.791Z,9.93
2019-05-11T06:12:28.817Z,9.80
2019-05-11T06:15:00.165Z,9.53
2019-05-11T06:17:30.700Z,8.68
2019-05-11T06:20:03.834Z,9.00
2019-05-11T06:22:34.823Z,9.50
2019-05-11T06:25:07.205Z,9.73
2019-05-11T06:27:38.537Z,9.20
2019-05-11T06:30:09.884Z,7.85
2019-05-11T06:32:41.646Z,6.72
2019-05-11T06:35:14.306Z,7.05
2019-05-11T06:37:46.586Z,5.50
2019-05-11T06:40:17.982Z,5.00
2019-05-11T06:42:48.408Z,6.25
2019-05-11T06:45:19.498Z,6.08
2019-05-11T06:47:50.546Z,5.47
2019-05-11T06:50:21.459Z,5.95
2019-05-11T06:52:52.522Z,5.40
2019-05-11T06:55:23.660Z,8.30
2019-05-11T06:57:54.553Z,8.83
2019-05-11T07:00:25.950Z,5.40
2019-05-11T07:02:57.412Z,6.17
2019-05-11T07:05:28.379Z,5.08
2019-05-11T07:08:02.243Z,4.37
2019-05-11T07:10:33.074Z,4.95
2019-05-11T07:13:04.006Z,5.53
2019-05-11T07:15:35.810Z,4.72
2019-05-11T07:18:07.540Z,5.80
2019-05-11T07:20:50.032Z,3.90
2019-05-11T07:23:10.228Z,3.25
2019-05-11T07:25:41.208Z,3.52
2019-05-11T07:28:12.020Z,3.80
2019-05-11T07:30:42.924Z,3.95
2019-05-11T07:33:18.306Z,3.25
2019-05-11T07:35:48.789Z,3.60
2019-05-11T07:38:19.628Z,3.40
2019-05-11T07:40:50.665Z,4.28
2019-05-11T07:43:21.502Z,4.10
2019-05-11T07:45:52.345Z,3.60
2019-05-11T07:48:23.171Z,3.67
2019-05-11T07:50:55.078Z,4.00
2019-05-11T07:53:27.789Z,4.05
2019-05-11T07:55:57.945Z,3.70
2019-05-11T07:58:29.205Z,3.70
2019-05-11T08:01:00.427Z,4.65
2019-05-11T08:03:32.588Z,3.33
2019-05-11T08:06:03.118Z,3.85
2019-05-11T08:08:33.814Z,3.60
2019-05-11T08:11:05.198Z,3.20
2019-05-11T08:13:35.799Z,3.20
2019-05-11T08:16:08.252Z,3.08
2019-05-11T08:18:38.946Z,3.15
2019-05-11T08:21:09.778Z,2.55
2019-05-11T08:23:42.962Z,2.33
2019-05-11T08:26:13.785Z,2.50
2019-05-11T08:28:45.028Z,2.60
2019-05-11T08:31:18.495Z,5.20
2019-05-11T08:33:48.285Z,3.20
2019-05-11T08:36:19.017Z,2.42
2019-05-11T08:38:50.276Z,3.00
2019-05-11T08:41:21.081Z,2.70
2019-05-11T08:43:51.922Z,3.12
2019-05-11T08:46:22.637Z,2.70
2019-05-11T08:48:53.451Z,2.85
2019-05-11T08:51:24.183Z,2.87
2019-05-11T08:53:55.120Z,2.85
2019-05-11T08:56:25.960Z,2.92
2019-05-11T08:58:58.864Z,2.95
2019-05-11T09:01:29.165Z,4.00
2019-05-11T09:03:59.900Z,2.60
2019-05-11T09:06:30.732Z,2.85
2019-05-11T09:09:02.367Z,2.35
2019-05-11T09:11:32.809Z,2.95
2019-05-11T09:14:03.651Z,3.52
2019-05-11T09:16:34.937Z,2.70
2019-05-11T09:19:08.799Z,2.77
2019-05-11T09:21:38.914Z,2.80
2019-05-11T09:24:10.578Z,2.45
2019-05-11T09:26:42.653Z,2.30
2019-05-11T09:29:12.927Z,2.65
2019-05-11T09:31:43.581Z,2.52
2019-05-11T09:34:18.323Z,3.08
2019-05-11T09:36:48.709Z,3.02
2019-05-11T09:39:20.493Z,3.37
2019-05-11T09:41:51.342Z,3.02
2019-05-11T09:44:21.858Z,3.33
2019-05-11T09:46:52.586Z,3.60
2019-05-11T09:49:24.140Z,4.33
2019-05-11T09:51:54.973Z,3.17
2019-05-11T09:54:25.752Z,4.70
2019-05-11T09:56:57.838Z,4.00
2019-05-11T09:59:28.729Z,3.72
2019-05-11T10:01:59.760Z,3.70
2019-05-11T10:04:31.493Z,5.10
2019-05-11T10:07:02.137Z,3.72
2019-05-11T10:09:33.115Z,3.87
2019-05-11T10:12:08.191Z,3.75
2019-05-11T10:14:38.735Z,4.12
2019-05-11T10:17:09.535Z,3.60
2019-05-11T10:19:40.888Z,3.80
2019-05-11T10:22:11.650Z,3.75
2019-05-11T10:24:42.247Z,5.50
2019-05-11T10:27:13.261Z,6.92
2019-05-11T10:29:44.060Z,4.90
2019-05-11T10:32:18.129Z,7.62
2019-05-11T10:34:48.995Z,9.50
2019-05-11T10:37:21.052Z,5.72
2019-05-11T10:39:51.412Z,5.55
2019-05-11T10:42:22.344Z,5.30
2019-05-11T10:44:54.435Z,6.40
2019-05-11T10:47:27.646Z,6.05
2019-05-11T10:49:57.985Z,6.75
2019-05-11T10:52:28.843Z,10.15
2019-05-11T10:54:59.372Z,6.87
2019-05-11T10:57:30.105Z,6.97
2019-05-11T11:00:00.862Z,8.13
2019-05-11T11:02:32.595Z,7.60
2019-05-11T11:05:08.081Z,7.67
2019-05-11T11:07:40.411Z,7.40
2019-05-11T11:10:12.383Z,8.30
2019-05-11T11:12:43.419Z,9.80
2019-05-11T11:15:14.861Z,9.30
2019-05-11T11:17:45.384Z,9.18
2019-05-11T11:20:18.841Z,9.28
2019-05-11T11:22:50.004Z,7.62
2019-05-11T11:25:22.491Z,9.20
2019-05-11T11:27:54.243Z,8.33
2019-05-11T11:30:28.560Z,8.73
2019-05-11T11:32:59.199Z,10.38
2019-05-11T11:35:31.370Z,10.43
2019-05-11T11:38:03.631Z,11.00
2019-05-11T11:40:34.467Z,12.60
2019-05-11T11:43:05.343Z,11.33
2019-05-11T11:45:38.132Z,9.40
2019-05-11T11:48:10.357Z,9.40
2019-05-11T11:50:41.083Z,8.70
2019-05-11T11:53:12.152Z,8.68
2019-05-11T11:55:43.238Z,11.93
2019-05-11T11:58:14.199Z,7.87
2019-05-11T12:00:48.051Z,7.50
2019-05-11T12:03:18.624Z,8.28
2019-05-11T12:05:51.326Z,7.08
2019-05-11T12:08:22.748Z,7.65
2019-05-11T12:10:53.289Z,7.72
2019-05-11T12:13:27.370Z,8.35
2019-05-11T12:15:58.481Z,8.13
2019-05-11T12:18:30.406Z,8.40
2019-05-11T12:21:01.169Z,8.05
2019-05-11T12:23:32.021Z,8.08
2019-05-11T12:26:03.017Z,8.98
2019-05-11T12:28:34.869Z,9.95
2019-05-11T12:31:05.441Z,9.23
2019-05-11T12:33:38.470Z,9.38
2019-05-11T12:36:09.572Z,9.70
2019-05-11T12:38:41.486Z,9.18
2019-05-11T12:41:12.347Z,9.53
2019-05-11T12:43:43.306Z,8.50
2019-05-11T12:46:14.918Z,8.28
2019-05-11T12:48:45.475Z,8.70
2019-05-11T12:51:18.650Z,8.00
2019-05-11T12:53:49.160Z,9.20
2019-05-11T12:56:20.095Z,8.75
2019-05-11T12:58:51.036Z,9.08
2019-05-11T13:01:22.185Z,9.73
2019-05-11T13:03:52.952Z,9.80
2019-05-11T13:06:24.053Z,8.95
2019-05-11T13:08:55.321Z,9.95
2019-05-11T13:11:28.423Z,9.55
2019-05-11T13:13:59.533Z,9.30
2019-05-11T13:16:30.511Z,9.38
2019-05-11T13:19:01.399Z,9.18
2019-05-11T13:21:32.333Z,10.35
2019-05-11T13:24:03.278Z,13.90
2019-05-11T13:26:34.312Z,13.25
2019-05-11T13:29:07.554Z,12.30
2019-05-11T13:31:39.354Z,12.88
2019-05-11T13:34:10.153Z,15.05
2019-05-11T13:36:41.063Z,13.20
2019-05-11T13:39:12.038Z,12.90
2019-05-11T13:41:43.211Z,12.78
2019-05-11T13:44:18.625Z,11.95
2019-05-11T13:49:20.017Z,12.50
2019-05-11T13:51:51.053Z,13.75
2019-05-11T13:54:21.494Z,15.63
2019-05-11T13:56:52.930Z,17.40
2019-05-11T13:59:24.279Z,16.60
2019-05-11T14:01:55.323Z,14.55
2019-05-11T14:04:28.173Z,14.30
2019-05-11T14:07:00.363Z,12.30
2019-05-11T14:09:31.507Z,12.58
2019-05-11T14:12:02.348Z,14.05
2019-05-11T14:14:33.267Z,12.07
2019-05-11T14:17:04.629Z,13.10
2019-05-11T14:19:38.451Z,13.32
2019-05-11T14:22:08.789Z,15.78
2019-05-11T14:24:39.709Z,14.68
2019-05-11T14:27:10.731Z,16.27
2019-05-11T14:29:42.997Z,15.23
2019-05-11T14:32:13.729Z,16.87
2019-05-11T14:34:44.681Z,17.80
2019-05-11T14:37:17.896Z,14.38
2019-05-11T14:39:48.357Z,16.50
2019-05-11T14:42:22.126Z,13.70
2019-05-11T14:44:53.747Z,13.38
2019-05-11T14:47:24.267Z,13.65
2019-05-11T14:49:57.663Z,13.40
2019-05-11T14:52:28.062Z,14.75
2019-05-11T14:55:00.055Z,13.88
2019-05-11T14:57:33.350Z,11.88
2019-05-11T15:00:08.342Z,11.03
2019-05-11T15:02:49.538Z,13.53
2019-05-11T15:05:23.778Z,10.20
2019-05-11T15:07:54.322Z,10.55
2019-05-11T15:10:27.734Z,10.23
2019-05-11T15:12:59.228Z,9.75
2019-05-11T15:15:30.383Z,11.20
2019-05-11T15:18:01.254Z,9.53
2019-05-11T15:20:32.667Z,9.33
2019-05-11T15:23:03.808Z,8.43
2019-05-11T15:25:34.835Z,10.88
2019-05-11T15:28:05.889Z,9.75
2019-05-11T15:30:38.028Z,10.85
2019-05-11T15:33:08.891Z,10.05
2019-05-11T15:35:39.862Z,10.43
2019-05-11T15:38:10.811Z,10.10
2019-05-11T15:40:43.235Z,8.90
2019-05-11T15:43:14.378Z,8.33
2019-05-11T15:45:48.564Z,8.98
2019-05-11T15:48:19.858Z,9.35
2019-05-11T15:50:51.080Z,9.38
2019-05-11T15:53:21.988Z,10.20
2019-05-11T15:55:52.957Z,9.08
2019-05-11T15:58:23.704Z,9.13
2019-05-11T16:00:54.894Z,9.78
2019-05-11T16:03:27.932Z,11.65
2019-05-11T16:05:58.456Z,8.43
2019-05-11T16:08:29.587Z,9.45
2019-05-11T16:11:01.444Z,9.80
2019-05-11T16:13:32.834Z,10.23
2019-05-11T16:16:03.542Z,12.05
2019-05-11T16:18:34.359Z,12.53
2019-05-11T16:21:05.094Z,12.60
2019-05-11T16:23:38.974Z,12.78
2019-05-11T16:26:09.122Z,11.60
2019-05-11T16:28:39.855Z,12.53
2019-05-11T16:31:12.120Z,14.18
2019-05-11T16:33:42.790Z,14.83
2019-05-11T16:36:13.792Z,12.85
2019-05-11T16:38:44.594Z,12.15
2019-05-11T16:41:20.827Z,12.05
2019-05-11T16:43:50.596Z,11.43
2019-05-11T16:46:21.967Z,12.80
2019-05-11T16:48:52.901Z,12.82
2019-05-11T16:51:23.917Z,14.70
2019-05-11T16:53:54.854Z,12.33
2019-05-11T16:56:25.691Z,12.82
2019-05-11T16:58:58.772Z,14.10
2019-05-11T17:01:29.193Z,15.32
2019-05-11T17:04:00.450Z,13.95
2019-05-11T17:06:31.962Z,16.15
2019-05-11T17:09:05.219Z,17.67
2019-05-11T17:11:38.326Z,16.52
2019-05-11T17:14:09.210Z,14.63
2019-05-11T17:16:40.151Z,15.20
2019-05-11T17:19:10.946Z,14.30
2019-05-11T17:21:42.432Z,12.90
2019-05-11T17:26:47.851Z,10.85
2019-05-11T17:29:20.161Z,13.58
2019-05-11T17:31:51.197Z,12.73
2019-05-11T17:34:22.019Z,13.10
2019-05-11T17:36:52.809Z,14.70
2019-05-11T17:39:23.606Z,14.70
2019-05-11T17:41:54.639Z,16.02
2019-05-11T17:44:25.481Z,15.90
2019-05-11T17:46:57.882Z,13.48
2019-05-11T17:49:29.704Z,15.35
2019-05-11T17:52:00.996Z,17.17
2019-05-11T17:54:32.298Z,16.05
2019-05-11T17:57:03.307Z,13.88
2019-05-11T17:59:34.278Z,14.95
2019-05-11T18:02:05.352Z,14.18
2019-05-11T18:04:38.811Z,13.00
2019-05-11T18:07:24.097Z,11.93
2019-05-11T18:09:41.911Z,12.15
2019-05-11T18:12:12.811Z,10.78
2019-05-11T18:14:45.124Z,10.65
2019-05-11T18:17:18.807Z,9.23
2019-05-11T18:19:50.068Z,9.65
2019-05-11T18:22:22.538Z,9.30
2019-05-11T18:24:53.267Z,9.98
2019-05-11T18:27:24.338Z,9.98
2019-05-11T18:29:57.903Z,11.50
2019-05-11T18:32:28.935Z,10.80
2019-05-11T18:34:59.498Z,11.25
2019-05-11T18:37:30.631Z,10.85
2019-05-11T18:40:03.495Z,10.82
2019-05-11T18:42:34.539Z,10.18
2019-05-11T18:45:08.234Z,9.95
2019-05-11T18:47:39.496Z,9.78
2019-05-11T18:50:10.731Z,10.18
2019-05-11T18:52:42.594Z,10.90
2019-05-11T18:55:13.623Z,10.93
2019-05-11T18:57:44.191Z,11.60
2019-05-11T19:00:15.403Z,11.40
2019-05-11T19:02:49.019Z,10.40
2019-05-11T19:05:18.719Z,12.20
2019-05-11T19:07:49.633Z,10.70
2019-05-11T19:10:20.794Z,11.60
2019-05-11T19:12:51.332Z,11.33
2019-05-11T19:15:24.422Z,12.35
2019-05-11T19:17:57.913Z,12.43
2019-05-11T19:20:29.043Z,13.65
2019-05-11T19:22:59.722Z,13.13
2019-05-11T19:25:32.749Z,14.53
2019-05-11T19:28:03.905Z,19.23
2019-05-11T19:30:38.348Z,19.55
2019-05-11T19:33:11.196Z,19.10
2019-05-11T19:35:41.748Z,22.80
2019-05-11T19:38:12.773Z,20.57
2019-05-11T19:40:43.639Z,18.82
2019-05-11T19:43:14.748Z,18.07
2019-05-11T19:45:45.685Z,17.20
2019-05-11T19:48:16.725Z,15.88
2019-05-11T19:51:02.715Z,18.92
2019-05-11T19:53:21.975Z,19.02
2019-05-11T19:55:52.815Z,20.85
2019-05-11T19:58:23.952Z,20.15
2019-05-11T20:00:57.971Z,18.82
2019-05-11T20:03:29.133Z,19.52
2019-05-11T20:06:00.970Z,19.27
2019-05-11T20:08:31.746Z,20.32
2019-05-11T20:11:03.514Z,20.88
2019-05-11T20:13:34.553Z,21.40
2019-05-11T20:16:05.398Z,22.85
2019-05-11T20:18:36.471Z,23.05
2019-05-11T20:21:16.703Z,21.85
2019-05-11T20:23:40.295Z,22.48
2019-05-11T20:26:11.194Z,23.50
2019-05-11T20:28:42.369Z,24.40
2019-05-11T20:31:14.737Z,28.52
2019-05-11T20:33:47.693Z,30.35
2019-05-11T20:36:19.071Z,30.85
2019-05-11T20:38:49.516Z,30.60
2019-05-11T20:41:20.451Z,29.80
2019-05-11T20:43:51.613Z,28.02
2019-05-11T20:46:22.921Z,27.80
2019-05-11T20:48:57.845Z,27.67
2019-05-11T20:53:59.115Z,19.30
2019-05-11T20:56:29.858Z,20.37
2019-05-11T20:59:03.097Z,17.17
2019-05-11T21:01:34.177Z,18.00
2019-05-11T21:04:04.957Z,16.45
2019-05-11T21:06:36.006Z,17.75
2019-05-11T21:09:08.126Z,18.90
2019-05-11T21:11:38.658Z,18.73
2019-05-11T21:14:09.480Z,17.85
2019-05-11T21:16:40.520Z,18.30
2019-05-11T21:19:13.099Z,18.27
2019-05-11T21:21:50.160Z,17.23
2019-05-11T21:24:16.094Z,17.57
2019-05-11T21:26:47.914Z,17.75
2019-05-11T21:29:19.307Z,19.12
2019-05-11T21:31:50.257Z,18.52
2019-05-11T21:34:22.608Z,18.98
2019-05-11T21:36:53.341Z,17.55
2019-05-11T21:39:25.716Z,18.10
2019-05-11T21:41:58.302Z,27.73
2019-05-11T21:44:29.117Z,22.13
2019-05-11T21:47:00.057Z,19.57
2019-05-11T21:49:30.657Z,20.90
2019-05-11T21:52:04.576Z,21.40
2019-05-11T21:54:34.880Z,19.45
2019-05-11T21:57:08.174Z,19.82
2019-05-11T21:59:38.570Z,19.50
2019-05-11T22:02:11.078Z,21.23
2019-05-11T22:04:41.939Z,21.60
2019-05-11T22:07:13.184Z,23.45
2019-05-11T22:09:44.189Z,23.98
2019-05-11T22:12:15.160Z,22.42
2019-05-11T22:14:48.888Z,25.85
2019-05-11T22:17:21.140Z,24.85
2019-05-11T22:19:51.764Z,23.60
2019-05-11T22:22:25.451Z,23.83
2019-05-11T22:24:58.407Z,24.82
2019-05-11T22:27:29.297Z,25.05
2019-05-11T22:30:00.574Z,27.30
2019-05-11T22:32:31.163Z,30.12
2019-05-11T22:35:01.962Z,30.52
2019-05-11T22:37:33.037Z,28.87
2019-05-11T22:40:05.321Z,29.35
2019-05-11T22:42:35.936Z,28.75
2019-05-11T22:45:08.895Z,27.95
2019-05-11T22:47:40.263Z,27.48
2019-05-11T22:50:11.236Z,26.40
2019-05-11T22:52:41.774Z,27.82
2019-05-11T22:55:12.666Z,27.37
2019-05-11T22:57:43.501Z,27.52
2019-05-11T23:00:14.745Z,29.70
2019-05-11T23:02:45.125Z,28.02
2019-05-11T23:05:17.517Z,28.50
2019-05-11T23:07:48.276Z,28.50
2019-05-11T23:10:19.441Z,31.23
2019-05-11T23:12:50.168Z,31.07
2019-05-11T23:15:20.997Z,34.23
2019-05-11T23:17:53.453Z,31.33
2019-05-11T23:20:24.494Z,31.25
2019-05-11T23:22:58.959Z,31.25
2019-05-11T23:25:28.781Z,34.20
2019-05-11T23:27:59.664Z,33.45
2019-05-11T23:30:30.603Z,34.53
2019-05-11T23:33:02.896Z,32.58
2019-05-11T23:35:33.852Z,31.60
2019-05-11T23:38:04.874Z,28.83
2019-05-11T23:40:37.863Z,28.98
2019-05-11T23:43:08.937Z,29.05
2019-05-11T23:45:40.825Z,29.70
2019-05-11T23:48:11.421Z,29.92
2019-05-11T23:50:42.321Z,30.60
2019-05-11T23:53:13.336Z,30.65
2019-05-11T23:55:44.195Z,28.30
2019-05-11T23:58:15.413Z,29.85
